Time;durP1;ratioP1;P1;durP2;ratioP2;P2;SDS_P1;SDS_P2;PMS_P1;PMS_P2;Temp;Humidity;BMP_temperature;BMP_pressure;BME280_temperature;BME280_humidity;BME280_pressure;Samples;Min_cycle;Max_cycle;Signal;HPM_P1;HPM_P2
2022/11/30 00:00:10;;;;;;;36.50;23.93;;;;;;;5.52;100.00;152779.47;4986295;28;20447;-77
2022/11/30 00:02:59;;;;;;;38.97;26.80;;;;;;;5.49;100.00;152773.03;4977276;28;20999;-77
2022/11/30 00:05:45;;;;;;;34.03;23.70;;;;;;;5.55;100.00;152787.22;4997595;28;20433;-77
2022/11/30 00:08:31;;;;;;;38.63;23.77;;;;;;;5.49;100.00;152771.72;4965946;28;20983;-77
2022/11/30 00:11:19;;;;;;;37.13;23.53;;;;;;;5.49;100.00;152771.72;4991102;28;20726;-77
2022/11/30 00:14:05;;;;;;;31.73;22.33;;;;;;;5.51;100.00;152778.19;5011378;28;20413;-77
2022/11/30 00:16:50;;;;;;;31.03;21.93;;;;;;;5.46;100.00;152765.28;4995527;28;20494;-77
2022/11/30 00:19:36;;;;;;;35.40;23.27;;;;;;;5.52;100.00;152779.47;4989608;28;20437;-77
2022/11/30 00:22:22;;;;;;;36.03;24.10;;;;;;;5.44;100.00;152758.84;4986994;28;20894;-77
2022/11/30 00:25:09;;;;;;;35.53;24.40;;;;;;;5.47;100.00;152767.88;4996075;28;20730;-77
2022/11/30 00:27:54;;;;;;;34.53;23.57;;;;;;;5.48;100.00;152769.19;4994755;28;20968;-77
2022/11/30 00:30:39;;;;;;;35.93;25.03;;;;;;;5.42;100.00;152753.69;5002954;28;20440;-77
2022/11/30 00:33:24;;;;;;;30.93;22.30;;;;;;;5.44;100.00;152760.13;4994017;28;20452;-77
2022/11/30 00:36:12;;;;;;;31.37;22.30;;;;;;;5.42;100.00;152753.69;4999870;28;20460;-77
2022/11/30 00:38:59;;;;;;;41.77;26.00;;;;;;;5.40;100.00;152748.56;4995631;28;20507;-77
2022/11/30 00:41:44;;;;;;;32.80;21.53;;;;;;;5.40;100.00;152749.81;4981542;28;20438;-77
2022/11/30 00:44:29;;;;;;;28.03;21.43;;;;;;;5.42;100.00;152755.00;4976023;28;20454;-77
2022/11/30 00:47:15;;;;;;;31.73;21.00;;;;;;;5.42;100.00;152753.69;4984955;28;20584;-77
2022/11/30 00:50:00;;;;;;;39.83;23.27;;;;;;;5.38;100.00;152743.34;5007410;28;20535;-77
2022/11/30 00:52:45;;;;;;;30.53;23.70;;;;;;;5.31;100.00;152725.31;5015876;28;20423;-77
2022/11/30 00:55:32;;;;;;;31.27;21.00;;;;;;;5.38;100.00;152743.34;4989048;28;20445;-77
2022/11/30 00:58:18;;;;;;;35.00;22.23;;;;;;;5.37;100.00;152740.81;5001572;28;20453;-77
2022/11/30 01:01:04;;;;;;;32.07;22.97;;;;;;;5.32;100.00;152727.91;4991051;28;20432;-77
2022/11/30 01:03:49;;;;;;;32.20;23.07;;;;;;;5.33;100.00;152730.47;4995106;28;20960;-77
2022/11/30 01:06:34;;;;;;;31.67;21.70;;;;;;;5.33;100.00;152730.47;4991258;28;20457;-77
2022/11/30 01:09:20;;;;;;;32.40;22.20;;;;;;;5.34;100.00;152733.06;4999281;28;20464;-77
2022/11/30 01:12:07;;;;;;;31.53;21.20;;;;;;;5.32;100.00;152727.91;5003640;28;21405;-77
2022/11/30 01:14:52;;;;;;;32.60;23.10;;;;;;;5.39;100.00;152745.94;4991816;28;20904;-77
2022/11/30 01:17:37;;;;;;;35.60;23.47;;;;;;;5.34;100.00;152733.06;4996303;28;20460;-77
2022/11/30 01:20:22;;;;;;;29.50;20.67;;;;;;;5.37;100.00;152740.81;4992904;28;20728;-77
2022/11/30 01:23:08;;;;;;;32.93;23.17;;;;;;;5.35;100.00;152735.63;4978849;28;20444;-77
2022/11/30 01:25:54;;;;;;;31.07;21.13;;;;;;;5.34;100.00;152733.06;4975079;28;20430;-77
2022/11/30 01:28:42;;;;;;;31.70;21.00;;;;;;;5.36;100.00;152739.50;4987652;28;20473;-77
2022/11/30 01:31:28;;;;;;;30.03;19.50;;;;;;;5.37;100.00;152742.09;4994044;28;20452;-77
2022/11/30 01:34:13;;;;;;;28.73;21.23;;;;;;;5.40;100.00;152748.56;4991168;28;20429;-78
2022/11/30 01:36:59;;;;;;;27.17;18.67;;;;;;;5.37;100.00;152740.81;4999879;28;20562;-77
2022/11/30 01:39:44;;;;;;;31.30;21.47;;;;;;;5.44;100.00;152758.84;4992147;28;20436;-77
2022/11/30 01:42:31;;;;;;;39.77;20.33;;;;;;;5.47;100.00;152766.59;4986043;28;20472;-77
2022/11/30 01:45:18;;;;;;;30.20;21.10;;;;;;;5.38;100.00;152744.66;4994672;28;20912;-77
2022/11/30 01:48:04;;;;;;;33.20;21.00;;;;;;;5.38;100.00;152744.66;4995784;28;21402;-77
2022/11/30 01:50:49;;;;;;;32.00;19.40;;;;;;;5.37;100.00;152742.09;4993638;28;20954;-77
2022/11/30 01:53:35;;;;;;;30.47;20.50;;;;;;;5.38;100.00;152743.34;4986639;28;20523;-77
2022/11/30 01:56:20;;;;;;;82.60;25.23;;;;;;;5.37;100.00;152742.09;4990169;28;20441;-77
2022/11/30 01:59:05;;;;;;;42.73;21.73;;;;;;;5.36;100.00;152738.22;4987680;28;20505;-77
2022/11/30 02:01:52;;;;;;;49.07;21.30;;;;;;;5.39;100.00;152745.94;4992022;28;20464;-78
2022/11/30 02:04:38;;;;;;;40.00;22.00;;;;;;;5.35;100.00;152735.63;4993259;28;20434;-77
2022/11/30 02:07:23;;;;;;;32.10;20.70;;;;;;;5.37;100.00;152740.81;4992796;28;20453;-77
2022/11/30 02:10:14;;;;;;;38.03;20.67;;;;;;;5.42;100.00;152753.69;4988486;28;20448;-77
2022/11/30 02:13:10;;;;;;;68.60;24.27;;;;;;;5.38;100.00;152744.66;4957025;28;20482;-77
2022/11/30 02:16:03;;;;;;;32.07;19.53;;;;;;;5.41;100.00;152751.09;4971510;28;20509;-77
2022/11/30 02:18:57;;;;;;;31.93;20.83;;;;;;;5.43;100.00;152756.25;4972006;28;20581;-77
2022/11/30 02:21:47;;;;;;;67.30;24.40;;;;;;;5.40;100.00;152748.56;4973656;28;20430;-77
2022/11/30 02:24:44;;;;;;;148.97;31.70;;;;;;;5.38;100.00;152743.34;4943328;28;20518;-77
2022/11/30 02:27:44;;;;;;;128.30;30.17;;;;;;;5.35;100.00;152735.63;4973577;28;20461;-77
2022/11/30 02:30:33;;;;;;;95.80;25.03;;;;;;;5.40;100.00;152748.56;4976725;28;20549;-77
2022/11/30 02:33:21;;;;;;;44.80;20.47;;;;;;;5.35;100.00;152735.63;4986922;28;20516;-77
2022/11/30 02:36:08;;;;;;;52.23;22.83;;;;;;;5.36;100.00;152738.22;4955231;28;20454;-77
2022/11/30 02:38:53;;;;;;;100.33;25.00;;;;;;;5.34;100.00;152733.06;4987836;28;20412;-77
2022/11/30 02:41:40;;;;;;;52.47;22.50;;;;;;;5.32;100.00;152727.91;4963627;28;20425;-77
2022/11/30 02:44:26;;;;;;;73.27;24.87;;;;;;;5.35;100.00;152736.91;4955684;28;20938;-77
2022/11/30 02:47:23;;;;;;;204.83;35.13;;;;;;;5.38;100.00;152744.66;4970615;28;20456;-77
2022/11/30 02:50:11;;;;;;;149.87;30.90;;;;;;;5.29;100.00;152721.47;4964291;28;20437;-77
2022/11/30 02:52:56;;;;;;;93.10;27.07;;;;;;;5.29;100.00;152720.19;4972544;28;20497;-77
2022/11/30 02:55:42;;;;;;;72.03;23.33;;;;;;;5.29;100.00;152720.19;4971893;28;20715;-77
2022/11/30 02:58:27;;;;;;;59.70;21.77;;;;;;;5.30;100.00;152722.72;4972026;28;20468;-77
2022/11/30 03:01:13;;;;;;;103.97;25.57;;;;;;;5.31;100.00;152726.63;4967277;28;20453;-78
2022/11/30 03:04:00;;;;;;;49.90;20.87;;;;;;;5.33;100.00;152730.47;4958328;28;20449;-77
2022/11/30 03:06:45;;;;;;;63.80;24.50;;;;;;;5.32;100.00;152727.91;4969812;28;20664;-77
2022/11/30 03:09:30;;;;;;;39.87;20.70;;;;;;;5.31;100.00;152725.31;4971138;28;20553;-77
2022/11/30 03:12:16;;;;;;;40.00;22.80;;;;;;;5.32;100.00;152727.91;4971894;28;20576;-77
2022/11/30 03:15:01;;;;;;;86.50;26.63;;;;;;;5.31;100.00;152726.63;4968776;28;20441;-77
2022/11/30 03:17:46;;;;;;;135.67;29.60;;;;;;;5.31;100.00;152726.63;4971344;28;20914;-77
2022/11/30 03:20:33;;;;;;;49.43;22.00;;;;;;;5.26;100.00;152712.44;4953631;29;20415;-77
2022/11/30 03:23:18;;;;;;;51.93;22.37;;;;;;;5.27;100.00;152715.03;4981821;28;20944;-77
2022/11/30 03:26:05;;;;;;;63.07;21.77;;;;;;;5.26;100.00;152712.44;4969854;28;20453;-77
2022/11/30 03:28:50;;;;;;;65.17;23.90;;;;;;;5.28;100.00;152717.59;4980628;28;20469;-77
2022/11/30 03:31:35;;;;;;;100.87;26.23;;;;;;;5.34;100.00;152733.06;4973781;28;20449;-77
2022/11/30 03:34:21;;;;;;;30.67;20.07;;;;;;;5.29;100.00;152721.47;4972987;28;20589;-77
2022/11/30 03:37:08;;;;;;;64.57;23.50;;;;;;;5.32;100.00;152727.91;4974541;28;20469;-77
2022/11/30 03:39:53;;;;;;;67.90;21.90;;;;;;;5.30;100.00;152724.03;4972787;28;20801;-77
2022/11/30 03:42:39;;;;;;;52.97;20.90;;;;;;;5.36;100.00;152739.50;4937826;29;20937;-77
2022/11/30 03:45:24;;;;;;;35.30;19.53;;;;;;;5.36;100.00;152739.50;4961446;28;20461;-77
2022/11/30 03:48:09;;;;;;;30.23;18.03;;;;;;;5.34;100.00;152733.06;4964504;28;20545;-77
2022/11/30 03:50:55;;;;;;;53.30;20.70;;;;;;;5.33;100.00;152730.47;4972401;28;20470;-77
2022/11/30 03:53:42;;;;;;;45.97;19.53;;;;;;;5.32;100.00;152727.91;4977118;28;20465;-77
2022/11/30 03:56:27;;;;;;;29.27;17.30;;;;;;;5.30;100.00;152722.72;4957813;29;20973;-77
2022/11/30 03:59:12;;;;;;;31.93;16.63;;;;;;;5.29;100.00;152720.19;4966640;28;20427;-77
2022/11/30 04:01:57;;;;;;;88.77;23.63;;;;;;;5.29;100.00;152721.47;4963413;28;20453;-77
2022/11/30 04:04:43;;;;;;;35.47;18.40;;;;;;;5.27;100.00;152716.28;4971648;28;20601;-77
2022/11/30 04:07:28;;;;;;;76.13;24.30;;;;;;;5.32;100.00;152727.91;4982151;28;20548;-77
2022/11/30 04:10:15;;;;;;;30.37;19.03;;;;;;;5.25;100.00;152709.84;4977168;28;20542;-77
2022/11/30 04:13:00;;;;;;;28.37;17.17;;;;;;;5.27;100.00;152715.03;4973460;28;20489;-77
2022/11/30 04:15:46;;;;;;;28.77;16.90;;;;;;;5.29;100.00;152720.19;4969313;28;20618;-77
2022/11/30 04:18:32;;;;;;;30.00;18.10;;;;;;;5.28;100.00;152718.88;4956932;28;20518;-77
2022/11/30 04:21:18;;;;;;;28.70;18.03;;;;;;;5.29;100.00;152721.47;4987927;28;21092;-77
2022/11/30 04:24:03;;;;;;;85.03;21.80;;;;;;;5.31;100.00;152726.63;4972360;28;20449;-77
2022/11/30 04:26:50;;;;;;;45.33;19.77;;;;;;;5.32;100.00;152727.91;4977483;28;20461;-77
2022/11/30 04:29:35;;;;;;;28.53;17.00;;;;;;;5.30;100.00;152722.72;4976484;28;20518;-77
2022/11/30 04:32:20;;;;;;;29.37;15.87;;;;;;;5.29;100.00;152721.47;4976349;28;20433;-77
2022/11/30 04:35:07;;;;;;;80.20;20.80;;;;;;;5.42;100.00;152753.69;4975945;28;20532;-77
2022/11/30 04:37:52;;;;;;;30.67;16.67;;;;;;;5.32;100.00;152729.16;4982311;28;20437;-77
2022/11/30 04:40:39;;;;;;;56.63;18.30;;;;;;;5.33;100.00;152730.47;4971274;28;20925;-77
2022/11/30 04:43:27;;;;;;;30.77;16.57;;;;;;;5.30;100.00;152724.03;4974774;28;20540;-77
2022/11/30 04:46:12;;;;;;;38.10;17.67;;;;;;;5.33;100.00;152730.47;4982160;28;20801;-77
2022/11/30 04:48:58;;;;;;;38.80;14.63;;;;;;;5.29;100.00;152720.19;4985460;28;20469;-77
2022/11/30 04:51:43;;;;;;;32.47;17.93;;;;;;;5.29;100.00;152720.19;4958397;28;20415;-77
2022/11/30 04:54:29;;;;;;;23.47;15.83;;;;;;;5.28;100.00;152717.59;4952073;28;20984;-77
2022/11/30 04:57:14;;;;;;;53.47;20.80;;;;;;;5.34;100.00;152733.06;4977036;28;21005;-77
2022/11/30 05:00:01;;;;;;;67.07;22.83;;;;;;;5.38;100.00;152744.66;4967315;28;20430;-78
2022/11/30 05:02:46;;;;;;;79.53;23.80;;;;;;;5.32;100.00;152729.16;4972825;28;21106;-77
2022/11/30 05:05:31;;;;;;;106.77;23.50;;;;;;;5.30;100.00;152724.03;4975879;28;20851;-77
2022/11/30 05:08:17;;;;;;;111.77;24.73;;;;;;;5.31;100.00;152726.63;4971076;28;20508;-77
2022/11/30 05:11:03;;;;;;;112.17;23.37;;;;;;;5.28;100.00;152718.88;4966989;28;20437;-77
2022/11/30 05:13:48;;;;;;;104.67;25.00;;;;;;;5.31;100.00;152725.31;4975335;28;20564;-77
2022/11/30 05:16:35;;;;;;;85.10;25.00;;;;;;;5.33;100.00;152731.78;4987354;28;20488;-77
2022/11/30 05:19:20;;;;;;;41.57;19.53;;;;;;;5.31;100.00;152726.63;4992671;28;20551;-77
2022/11/30 05:22:06;;;;;;;23.17;16.53;;;;;;;5.32;100.00;152727.91;4991116;28;20876;-77
2022/11/30 05:24:52;;;;;;;21.80;15.80;;;;;;;5.31;100.00;152725.31;4975953;28;20453;-77
2022/11/30 05:27:37;;;;;;;23.03;15.60;;;;;;;5.33;100.00;152730.47;4993850;28;20524;-76
2022/11/30 05:30:22;;;;;;;21.63;15.70;;;;;;;5.29;100.00;152720.19;4993581;28;21066;-77
2022/11/30 05:33:09;;;;;;;47.13;18.50;;;;;;;5.34;100.00;152733.06;5006820;28;20447;-77
2022/11/30 05:35:54;;;;;;;24.47;17.40;;;;;;;5.27;100.00;152715.03;4990465;28;20425;-77
2022/11/30 05:38:39;;;;;;;23.47;16.30;;;;;;;5.30;100.00;152722.72;4994776;28;20456;-77
2022/11/30 05:41:25;;;;;;;26.20;16.70;;;;;;;5.28;100.00;152717.59;4992087;28;20448;-77
2022/11/30 05:44:11;;;;;;;25.87;16.40;;;;;;;5.28;100.00;152718.88;4990471;28;20484;-77
2022/11/30 05:46:56;;;;;;;21.20;15.67;;;;;;;5.29;100.00;152720.19;4977843;28;20437;-77
2022/11/30 05:49:43;;;;;;;21.27;17.30;;;;;;;5.32;100.00;152729.16;4987257;28;20460;-76
2022/11/30 05:52:28;;;;;;;24.17;16.60;;;;;;;5.32;100.00;152729.16;4988019;28;21214;-76
2022/11/30 05:55:14;;;;;;;18.80;13.90;;;;;;;5.32;100.00;152727.91;4992909;28;20520;-76
2022/11/30 05:57:59;;;;;;;22.90;15.17;;;;;;;5.34;100.00;152733.06;4989385;28;20461;-76
2022/11/30 06:00:44;;;;;;;25.23;15.53;;;;;;;5.30;100.00;152722.72;4989845;28;20453;-76
2022/11/30 06:03:30;;;;;;;22.67;14.37;;;;;;;5.31;100.00;152726.63;4995880;28;20455;-76
2022/11/30 06:06:18;;;;;;;21.30;15.13;;;;;;;5.32;100.00;152727.91;4990003;28;20634;-77
2022/11/30 06:09:03;;;;;;;23.67;17.13;;;;;;;5.31;100.00;152725.31;4988746;28;20469;-77
2022/11/30 06:11:58;;;;;;;24.60;16.10;;;;;;;5.36;100.00;152738.22;4994194;28;20487;-78
2022/11/30 06:14:44;;;;;;;20.83;14.90;;;;;;;5.37;100.00;152740.81;4988206;28;20457;-77
2022/11/30 06:17:29;;;;;;;20.00;14.17;;;;;;;5.41;100.00;152751.09;4993022;28;20464;-77
2022/11/30 06:20:14;;;;;;;23.07;15.03;;;;;;;5.38;100.00;152743.34;4992807;28;20816;-77
2022/11/30 06:23:01;;;;;;;21.10;13.87;;;;;;;5.36;100.00;152739.50;4993826;28;20580;-77
2022/11/30 06:25:46;;;;;;;22.13;14.73;;;;;;;5.36;100.00;152738.22;4992191;28;20452;-77
2022/11/30 06:28:31;;;;;;;21.37;14.47;;;;;;;5.39;100.00;152745.94;4994524;28;20432;-77
2022/11/30 06:31:17;;;;;;;19.90;14.70;;;;;;;5.35;100.00;152736.91;4993073;28;20836;-77
2022/11/30 06:34:02;;;;;;;22.90;16.27;;;;;;;5.33;100.00;152730.47;4992019;28;20464;-78
2022/11/30 06:36:48;;;;;;;24.77;15.43;;;;;;;5.34;100.00;152733.06;4994980;28;20548;-77
2022/11/30 06:39:34;;;;;;;24.10;14.90;;;;;;;5.38;100.00;152743.34;4999333;28;20919;-77
2022/11/30 06:42:20;;;;;;;23.07;16.33;;;;;;;5.37;100.00;152742.09;4977559;28;20947;-77
2022/11/30 06:45:06;;;;;;;23.33;15.50;;;;;;;5.39;100.00;152745.94;4985177;28;20948;-77
2022/11/30 06:47:54;;;;;;;22.60;15.70;;;;;;;5.39;100.00;152745.94;4993468;28;20940;-77
2022/11/30 06:50:40;;;;;;;24.20;16.10;;;;;;;5.33;100.00;152730.47;4977472;28;20472;-77
2022/11/30 06:53:25;;;;;;;24.20;16.70;;;;;;;5.35;100.00;152735.63;5003179;28;20801;-77
2022/11/30 06:56:12;;;;;;;24.60;15.37;;;;;;;5.33;100.00;152731.78;4992319;28;20516;-77
2022/11/30 06:58:58;;;;;;;21.83;15.67;;;;;;;5.36;100.00;152738.22;5000319;28;20445;-78
2022/11/30 07:01:43;;;;;;;21.43;15.77;;;;;;;5.34;100.00;152733.06;4990937;28;20440;-77
2022/11/30 07:04:28;;;;;;;26.90;17.40;;;;;;;5.33;100.00;152730.47;4993380;28;20441;-77
2022/11/30 07:07:14;;;;;;;22.50;17.10;;;;;;;5.35;100.00;152735.63;4987734;28;20481;-77
2022/11/30 07:09:59;;;;;;;27.67;18.97;;;;;;;5.33;100.00;152730.47;4996265;28;20475;-77
2022/11/30 07:12:46;;;;;;;21.13;16.00;;;;;;;5.34;100.00;152733.06;4980059;28;20933;-78
2022/11/30 07:15:31;;;;;;;20.47;15.33;;;;;;;5.32;100.00;152729.16;4975249;28;20454;-78
2022/11/30 07:18:17;;;;;;;23.60;16.27;;;;;;;5.33;100.00;152730.47;4980363;28;20532;-78
2022/11/30 07:21:04;;;;;;;30.73;17.03;;;;;;;5.34;100.00;152733.06;4988352;28;20437;-77
2022/11/30 07:26:53;;;;;;;22.97;16.23;;;;;;;5.34;100.00;152733.06;4998387;28;20496;-77
2022/11/30 07:29:39;;;;;;;51.00;20.40;;;;;;;5.35;100.00;152735.63;4992401;28;21022;-77
2022/11/30 07:32:25;;;;;;;25.90;17.03;;;;;;;5.32;100.00;152727.91;4992287;28;20999;-77
2022/11/30 07:35:10;;;;;;;20.90;15.70;;;;;;;5.31;100.00;152725.31;4988226;28;20580;-77
2022/11/30 07:37:55;;;;;;;23.30;16.40;;;;;;;5.36;100.00;152738.22;4992624;28;20484;-78
2022/11/30 07:40:41;;;;;;;24.10;17.50;;;;;;;5.34;100.00;152734.38;4988953;28;21004;-77
2022/11/30 07:43:27;;;;;;;23.10;17.90;;;;;;;5.32;100.00;152727.91;4981825;28;20436;-77
2022/11/30 07:46:16;;;;;;;24.30;17.10;;;;;;;5.42;100.00;152753.69;4992649;28;20429;-77
2022/11/30 07:49:01;;;;;;;23.83;16.43;;;;;;;5.35;100.00;152735.63;4993370;28;20441;-78
2022/11/30 07:51:47;;;;;;;23.30;16.97;;;;;;;5.33;100.00;152731.78;4978540;28;20429;-77
2022/11/30 07:54:33;;;;;;;22.80;16.33;;;;;;;5.34;100.00;152734.38;4990418;28;20975;-77
2022/11/30 07:57:18;;;;;;;24.33;16.00;;;;;;;5.27;100.00;152716.28;4991607;28;20888;-77
2022/11/30 08:00:05;;;;;;;23.23;16.30;;;;;;;5.30;100.00;152722.72;4981803;28;20449;-78
2022/11/30 08:02:58;;;;;;;26.40;16.53;;;;;;;5.24;100.00;152707.28;4990318;28;20451;-77
2022/11/30 08:05:44;;;;;;;28.63;18.53;;;;;;;5.19;100.00;152695.66;4988619;28;20444;-77
2022/11/30 08:08:31;;;;;;;27.80;17.40;;;;;;;5.21;100.00;152699.56;4989180;28;20499;-77
2022/11/30 08:11:18;;;;;;;24.70;16.73;;;;;;;5.13;100.00;152678.94;4977376;28;20967;-77
2022/11/30 08:14:04;;;;;;;27.33;16.20;;;;;;;5.15;100.00;152685.38;4995499;28;20468;-77
2022/11/30 08:16:50;;;;;;;27.33;16.87;;;;;;;5.18;100.00;152691.81;4980022;28;20516;-77
2022/11/30 08:19:37;;;;;;;27.43;19.00;;;;;;;5.24;100.00;152707.28;4991446;28;20937;-77
2022/11/30 08:22:22;;;;;;;25.60;16.63;;;;;;;5.26;100.00;152712.44;4976438;28;20441;-77
2022/11/30 08:25:08;;;;;;;24.77;17.60;;;;;;;5.29;100.00;152720.19;4975490;28;20497;-77
2022/11/30 08:27:53;;;;;;;26.30;17.53;;;;;;;5.29;100.00;152720.19;4968936;28;20593;-78
2022/11/30 08:30:39;;;;;;;23.10;17.43;;;;;;;5.24;100.00;152707.28;4988711;28;20485;-77
2022/11/30 08:33:24;;;;;;;22.63;16.07;;;;;;;5.17;100.00;152690.50;4981094;28;20741;-77
2022/11/30 08:36:13;;;;;;;26.17;16.07;;;;;;;5.17;100.00;152689.22;4999210;28;20444;-77
2022/11/30 08:38:59;;;;;;;23.90;16.83;;;;;;;5.21;100.00;152699.56;4992745;28;20451;-77
2022/11/30 08:41:45;;;;;;;22.43;14.80;;;;;;;5.22;100.00;152702.09;4993999;28;20443;-77
2022/11/30 08:44:30;;;;;;;22.70;15.60;;;;;;;5.26;100.00;152712.44;4995299;28;20449;-78
2022/11/30 08:47:15;;;;;;;24.97;15.20;;;;;;;5.33;100.00;152730.47;4981724;28;20750;-77
2022/11/30 08:50:01;;;;;;;21.83;14.63;;;;;;;5.32;100.00;152729.16;4996518;28;20567;-77
2022/11/30 08:52:47;;;;;;;23.40;15.30;;;;;;;5.39;100.00;152745.94;4994671;28;20449;-77
2022/11/30 08:55:32;;;;;;;24.67;15.37;;;;;;;5.40;100.00;152749.81;4984010;28;20449;-78
2022/11/30 08:58:24;;;;;;;21.80;14.83;;;;;;;5.44;100.00;152760.13;4989984;28;20483;-77
2022/11/30 09:01:11;;;;;;;20.80;15.63;;;;;;;5.53;100.00;152782.06;4995627;28;20437;-77
2022/11/30 09:03:57;;;;;;;18.67;13.50;;;;;;;5.61;100.00;152801.41;4993341;28;20500;-77
2022/11/30 09:06:42;;;;;;;17.47;12.27;;;;;;;5.67;100.00;152818.16;4995245;28;20444;-78
2022/11/30 09:09:29;;;;;;;18.80;13.00;;;;;;;5.73;100.00;152832.34;4995138;28;20437;-78
2022/11/30 09:12:14;;;;;;;18.13;13.10;;;;;;;5.69;100.00;152822.03;4999276;28;20491;-78
2022/11/30 09:15:00;;;;;;;24.30;13.93;;;;;;;5.70;100.00;152825.88;4979914;28;20949;-77
2022/11/30 09:17:45;;;;;;;22.63;15.13;;;;;;;5.70;100.00;152825.88;4988606;28;20449;-78
2022/11/30 09:20:32;;;;;;;21.30;14.30;;;;;;;5.73;100.00;152833.63;5011259;28;20412;-77
2022/11/30 09:23:18;;;;;;;24.90;15.70;;;;;;;5.79;100.00;152849.13;4982312;28;20774;-78
2022/11/30 09:26:07;;;;;;;28.47;16.50;;;;;;;5.76;100.00;152840.06;4995547;28;20460;-78
2022/11/30 09:28:53;;;;;;;22.67;15.90;;;;;;;5.76;100.00;152840.06;4976943;28;20441;-78
2022/11/30 09:31:38;;;;;;;24.07;16.20;;;;;;;5.73;100.00;152833.63;5002009;28;20582;-87
2022/11/30 09:34:23;;;;;;;19.00;13.83;;;;;;;5.82;100.00;152856.88;4986809;28;20433;-87
2022/11/30 09:37:09;;;;;;;22.23;16.13;;;;;;;5.84;100.00;152860.72;4991998;28;20452;-87
2022/11/30 09:39:54;;;;;;;19.03;15.20;;;;;;;5.71;100.00;152827.19;4999716;28;20413;-87
2022/11/30 09:42:48;;;;;;;24.83;16.13;;;;;;;5.57;100.00;152792.38;4994914;28;20520;-87
2022/11/30 09:45:35;;;;;;;25.00;15.57;;;;;;;5.58;100.00;152794.97;4994494;28;20584;-87
2022/11/30 09:48:26;;;;;;;21.90;16.20;;;;;;;5.62;100.00;152803.97;4990399;28;20588;-87
2022/11/30 09:51:15;;;;;;;23.90;15.80;;;;;;;5.64;100.00;152810.41;4994793;28;20706;-87
2022/11/30 09:54:07;;;;;;;23.50;14.10;;;;;;;5.65;100.00;152811.69;4993206;28;20472;-87
2022/11/30 09:56:52;;;;;;;19.97;14.70;;;;;;;5.68;100.00;152820.75;4978241;28;20480;-87
2022/11/30 09:59:40;;;;;;;19.83;14.87;;;;;;;5.70;100.00;152825.88;4992389;28;20448;-87
2022/11/30 10:02:28;;;;;;;21.40;15.80;;;;;;;5.76;100.00;152841.38;4987366;28;20473;-87
2022/11/30 10:05:15;;;;;;;24.70;16.17;;;;;;;5.82;100.00;152856.88;4993261;28;20436;-87
2022/11/30 10:08:11;;;;;;;24.10;16.13;;;;;;;5.91;100.00;152878.81;4974099;28;20581;-87
2022/11/30 10:11:12;;;;;;;22.90;15.80;;;;;;;5.83;100.00;152859.41;4964046;28;20477;-87
2022/11/30 10:14:07;;;;;;;22.40;14.63;;;;;;;5.80;100.00;152851.66;4990424;28;20455;-86
2022/11/30 10:17:00;;;;;;;19.50;14.20;;;;;;;5.81;100.00;152854.28;4987495;28;21015;-86
2022/11/30 10:20:01;;;;;;;20.20;14.27;;;;;;;5.87;100.00;152869.81;4982325;28;20511;-86
2022/11/30 10:22:59;;;;;;;20.70;13.97;;;;;;;5.87;100.00;152869.81;4959912;28;20973;-86
2022/11/30 10:25:52;;;;;;;19.80;14.90;;;;;;;5.88;100.00;152872.34;4985483;28;20437;-86
2022/11/30 10:28:47;;;;;;;19.20;14.80;;;;;;;5.95;100.00;152890.44;4985094;28;20437;-86
2022/11/30 10:31:34;;;;;;;16.30;11.47;;;;;;;5.90;100.00;152876.25;4993029;28;20581;-86
2022/11/30 10:34:23;;;;;;;16.37;11.50;;;;;;;5.92;100.00;152881.41;4980796;28;20449;-86
2022/11/30 10:37:12;;;;;;;14.93;10.20;;;;;;;5.88;100.00;152872.34;4980123;28;21064;-87
2022/11/30 10:40:00;;;;;;;16.40;10.77;;;;;;;5.84;100.00;152862.00;4992198;28;20687;-86
2022/11/30 10:42:48;;;;;;;17.00;11.80;;;;;;;5.83;100.00;152858.13;4990594;28;20448;-86
2022/11/30 10:45:35;;;;;;;19.20;12.37;;;;;;;5.94;100.00;152887.84;4999500;28;20991;-86
2022/11/30 10:48:25;;;;;;;17.97;11.10;;;;;;;5.97;100.00;152895.59;4989864;28;20457;-86
2022/11/30 10:51:12;;;;;;;17.97;12.90;;;;;;;6.01;100.00;152905.88;4995529;28;20468;-86
2022/11/30 10:53:59;;;;;;;20.00;12.17;;;;;;;5.88;100.00;152871.06;4976599;28;20449;-86
2022/11/30 10:56:44;;;;;;;14.67;11.60;;;;;;;5.96;100.00;152893.00;4987280;28;21055;-86
2022/11/30 10:59:42;;;;;;;18.17;11.93;;;;;;;5.93;100.00;152884.00;4989260;28;20513;-86
2022/11/30 11:02:38;;;;;;;19.40;12.50;;;;;;;5.92;100.00;152882.69;4991673;28;20445;-86
2022/11/30 11:05:25;;;;;;;18.93;12.43;;;;;;;5.90;100.00;152876.25;4991237;28;20437;-86
2022/11/30 11:08:25;;;;;;;18.87;12.33;;;;;;;5.92;100.00;152882.69;4985380;28;20540;-86
2022/11/30 11:11:33;;;;;;;16.20;11.57;;;;;;;5.86;100.00;152865.91;4974809;28;20628;-86
2022/11/30 11:14:20;;;;;;;15.17;11.40;;;;;;;5.86;100.00;152865.91;4985912;28;20452;-86
2022/11/30 11:17:24;;;;;;;15.07;9.87;;;;;;;5.85;100.00;152863.38;4991051;28;20441;-86
2022/11/30 11:20:27;;;;;;;14.60;11.10;;;;;;;5.91;100.00;152880.09;4988900;28;20460;-86
2022/11/30 11:23:22;;;;;;;19.53;12.90;;;;;;;6.01;100.00;152905.88;4993551;28;20815;-86
2022/11/30 11:26:14;;;;;;;18.20;11.60;;;;;;;6.00;100.00;152903.34;4990048;28;20461;-86
2022/11/30 11:29:00;;;;;;;16.10;11.73;;;;;;;6.01;100.00;152905.88;4993500;28;20809;-86
2022/11/30 11:31:46;;;;;;;16.63;11.93;;;;;;;6.06;100.00;152918.78;4990077;28;20475;-86
2022/11/30 11:34:33;;;;;;;15.83;13.27;;;;;;;6.02;100.00;152908.50;4994289;28;20915;-86
2022/11/30 11:37:25;;;;;;;16.20;12.20;;;;;;;6.00;100.00;152903.34;4978861;28;20469;-86
2022/11/30 11:40:21;;;;;;;17.80;11.90;;;;;;;6.02;100.00;152907.19;4992362;28;20425;-87
2022/11/30 11:43:16;;;;;;;18.80;12.30;;;;;;;6.01;100.00;152905.88;4984525;28;20967;-86
2022/11/30 11:46:10;;;;;;;14.97;10.77;;;;;;;6.11;100.00;152930.44;5001151;28;20460;-77
2022/11/30 11:48:58;;;;;;;18.73;13.57;;;;;;;6.08;100.00;152923.97;4990600;28;20449;-77
2022/11/30 11:51:44;;;;;;;14.50;11.07;;;;;;;6.09;100.00;152926.53;4986112;28;20472;-77
2022/11/30 11:54:34;;;;;;;15.33;11.50;;;;;;;6.14;100.00;152938.19;4990553;28;20805;-76
2022/11/30 11:57:23;;;;;;;19.43;13.33;;;;;;;6.13;100.00;152935.59;4988531;28;20492;-76
2022/11/30 12:00:15;;;;;;;16.60;11.63;;;;;;;6.10;100.00;152929.13;4996320;28;20577;-77
2022/11/30 12:03:06;;;;;;;18.27;11.00;;;;;;;6.10;100.00;152929.13;4984576;28;20976;-76
2022/11/30 12:05:56;;;;;;;16.57;10.37;;;;;;;6.06;100.00;152917.53;4991657;28;20461;-77
2022/11/30 12:08:46;;;;;;;13.50;10.50;;;;;;;6.08;100.00;152923.97;4980946;28;21024;-76
2022/11/30 12:11:37;;;;;;;16.20;11.00;;;;;;;6.10;100.00;152927.84;4986521;28;20489;-79
2022/11/30 12:14:27;;;;;;;15.37;10.43;;;;;;;6.08;100.00;152922.69;4975915;28;20430;-77
2022/11/30 12:17:26;;;;;;;17.20;10.10;;;;;;;6.12;100.00;152932.97;4996479;28;21015;-77
2022/11/30 12:20:18;;;;;;;13.37;9.60;;;;;;;6.17;100.00;152944.63;4995805;28;20448;-78
2022/11/30 12:23:18;;;;;;;14.13;9.10;;;;;;;6.19;100.00;152951.06;4975022;28;20501;-78
2022/11/30 12:26:12;;;;;;;12.93;9.03;;;;;;;6.17;100.00;152944.63;4995853;28;20512;-78
2022/11/30 12:29:17;;;;;;;10.30;8.77;;;;;;;6.22;100.00;152957.53;4995493;28;20604;-77
2022/11/30 12:32:15;;;;;;;10.90;8.60;;;;;;;6.14;100.00;152938.19;4995751;28;20483;-77
2022/11/30 12:35:15;;;;;;;12.10;8.23;;;;;;;6.11;100.00;152931.72;4986317;28;20579;-78
2022/11/30 12:38:08;;;;;;;13.33;9.80;;;;;;;6.19;100.00;152951.06;4994275;28;20564;-77
2022/11/30 12:41:00;;;;;;;13.43;9.33;;;;;;;6.19;100.00;152949.78;4992468;28;20453;-78
2022/11/30 12:43:49;;;;;;;15.30;11.20;;;;;;;6.16;100.00;152942.03;4989392;28;20440;-77